sensor_id;sensor_type;location;lat;lon;timestamp;pressure;altitude;pressure_sealevel;temperature;humidity
29733;BME280;16643;43.158;25.302;2023-04-23T00:01:28;98024.31;;;8.69;100.00
29733;BME280;16643;43.158;25.302;2023-04-23T00:03:55;98067.50;;;9.04;100.00
29733;BME280;16643;43.158;25.302;2023-04-23T00:06:22;98055.66;;;8.94;100.00
29733;BME280;16643;43.158;25.302;2023-04-23T00:08:52;98072.16;;;8.91;100.00
29733;BME280;16643;43.158;25.302;2023-04-23T00:11:19;98045.31;;;8.92;100.00
29733;BME280;16643;43.158;25.302;2023-04-23T00:13:46;98070.28;;;8.96;100.00
29733;BME280;16643;43.158;25.302;2023-04-23T00:16:14;98026.81;;;8.72;100.00
29733;BME280;16643;43.158;25.302;2023-04-23T00:18:40;98063.47;;;8.92;100.00
29733;BME280;16643;43.158;25.302;2023-04-23T00:21:06;98050.56;;;8.91;100.00
29733;BME280;16643;43.158;25.302;2023-04-23T00:23:33;98044.56;;;8.89;100.00
29733;BME280;16643;43.158;25.302;2023-04-23T00:25:59;98038.75;;;8.79;100.00
29733;BME280;16643;43.158;25.302;2023-04-23T00:28:25;98053.22;;;8.88;100.00
29733;BME280;16643;43.158;25.302;2023-04-23T00:30:50;98042.78;;;8.91;100.00
29733;BME280;16643;43.158;25.302;2023-04-23T00:33:16;98024.06;;;8.80;100.00
29733;BME280;16643;43.158;25.302;2023-04-23T00:35:42;98055.09;;;8.81;100.00
29733;BME280;16643;43.158;25.302;2023-04-23T00:38:07;98044.69;;;8.83;100.00
29733;BME280;16643;43.158;25.302;2023-04-23T00:40:33;98044.63;;;8.86;100.00
29733;BME280;16643;43.158;25.302;2023-04-23T00:42:59;98015.88;;;8.61;100.00
29733;BME280;16643;43.158;25.302;2023-04-23T00:45:25;98018.22;;;8.70;100.00
29733;BME280;16643;43.158;25.302;2023-04-23T00:47:52;98054.03;;;8.90;100.00
29733;BME280;16643;43.158;25.302;2023-04-23T00:50:18;98060.00;;;8.92;100.00
29733;BME280;16643;43.158;25.302;2023-04-23T00:52:45;98042.09;;;8.83;100.00
29733;BME280;16643;43.158;25.302;2023-04-23T00:55:10;98053.34;;;8.82;100.00
29733;BME280;16643;43.158;25.302;2023-04-23T00:57:37;98033.19;;;8.59;100.00
29733;BME280;16643;43.158;25.302;2023-04-23T01:00:04;98053.63;;;8.71;100.00
29733;BME280;16643;43.158;25.302;2023-04-23T01:02:31;98038.00;;;8.74;100.00
29733;BME280;16643;43.158;25.302;2023-04-23T01:05:00;98017.03;;;8.48;100.00
29733;BME280;16643;43.158;25.302;2023-04-23T01:07:26;98046.94;;;8.61;100.00
29733;BME280;16643;43.158;25.302;2023-04-23T01:09:52;98053.75;;;8.66;100.00
29733;BME280;16643;43.158;25.302;2023-04-23T01:12:18;98025.59;;;8.51;100.00
29733;BME280;16643;43.158;25.302;2023-04-23T01:14:44;98067.88;;;8.52;100.00
29733;BME280;16643;43.158;25.302;2023-04-23T01:17:10;98042.75;;;8.57;100.00
29733;BME280;16643;43.158;25.302;2023-04-23T01:19:37;98057.50;;;8.53;100.00
29733;BME280;16643;43.158;25.302;2023-04-23T01:22:08;98004.59;;;8.25;100.00
29733;BME280;16643;43.158;25.302;2023-04-23T01:24:34;98027.41;;;8.48;100.00
29733;BME280;16643;43.158;25.302;2023-04-23T01:27:00;98051.25;;;8.62;100.00
29733;BME280;16643;43.158;25.302;2023-04-23T01:29:27;98042.06;;;8.49;100.00
29733;BME280;16643;43.158;25.302;2023-04-23T01:31:54;98009.53;;;8.37;100.00
29733;BME280;16643;43.158;25.302;2023-04-23T01:34:21;97991.50;;;8.31;100.00
29733;BME280;16643;43.158;25.302;2023-04-23T01:36:46;98015.75;;;8.27;100.00
29733;BME280;16643;43.158;25.302;2023-04-23T01:39:13;98002.34;;;8.11;100.00
29733;BME280;16643;43.158;25.302;2023-04-23T01:41:39;97974.16;;;7.97;100.00
29733;BME280;16643;43.158;25.302;2023-04-23T01:44:05;98036.56;;;8.24;100.00
29733;BME280;16643;43.158;25.302;2023-04-23T01:46:31;98049.69;;;8.15;100.00
29733;BME280;16643;43.158;25.302;2023-04-23T01:48:57;98034.94;;;8.18;100.00
29733;BME280;16643;43.158;25.302;2023-04-23T01:51:24;98064.00;;;8.31;100.00
29733;BME280;16643;43.158;25.302;2023-04-23T01:53:50;98035.88;;;8.14;100.00
29733;BME280;16643;43.158;25.302;2023-04-23T01:56:18;98061.66;;;8.20;100.00
29733;BME280;16643;43.158;25.302;2023-04-23T01:58:45;98036.66;;;8.19;100.00
29733;BME280;16643;43.158;25.302;2023-04-23T02:01:10;98054.84;;;8.16;100.00
29733;BME280;16643;43.158;25.302;2023-04-23T02:03:36;98041.50;;;7.94;100.00
29733;BME280;16643;43.158;25.302;2023-04-23T02:06:01;98049.25;;;7.94;100.00
29733;BME280;16643;43.158;25.302;2023-04-23T02:08:29;98065.16;;;7.76;100.00
29733;BME280;16643;43.158;25.302;2023-04-23T02:10:55;98043.66;;;7.73;100.00
29733;BME280;16643;43.158;25.302;2023-04-23T02:13:20;98048.06;;;7.68;100.00
29733;BME280;16643;43.158;25.302;2023-04-23T02:15:46;98037.69;;;7.69;100.00
29733;BME280;16643;43.158;25.302;2023-04-23T02:18:12;98035.03;;;7.74;100.00
29733;BME280;16643;43.158;25.302;2023-04-23T02:20:37;98060.69;;;7.84;100.00
29733;BME280;16643;43.158;25.302;2023-04-23T02:23:06;98061.69;;;7.77;100.00
29733;BME280;16643;43.158;25.302;2023-04-23T02:25:32;98061.69;;;-142.82;100.00
29733;BME280;16643;43.158;25.302;2023-04-23T02:27:58;98061.09;;;7.64;100.00
29733;BME280;16643;43.158;25.302;2023-04-23T02:30:26;98074.19;;;7.55;100.00
29733;BME280;16643;43.158;25.302;2023-04-23T02:32:52;98057.72;;;7.59;100.00
29733;BME280;16643;43.158;25.302;2023-04-23T02:35:17;98057.81;;;7.55;100.00
29733;BME280;16643;43.158;25.302;2023-04-23T02:37:43;98036.31;;;7.53;100.00
29733;BME280;16643;43.158;25.302;2023-04-23T02:40:09;98039.50;;;7.65;100.00
29733;BME280;16643;43.158;25.302;2023-04-23T02:42:34;98065.94;;;7.80;100.00
29733;BME280;16643;43.158;25.302;2023-04-23T02:45:00;98057.31;;;7.79;100.00
29733;BME280;16643;43.158;25.302;2023-04-23T02:47:26;98055.59;;;7.80;100.00
29733;BME280;16643;43.158;25.302;2023-04-23T02:49:52;98051.22;;;7.83;100.00
29733;BME280;16643;43.158;25.302;2023-04-23T02:52:17;98051.97;;;7.90;100.00
29733;BME280;16643;43.158;25.302;2023-04-23T02:54:43;98064.72;;;7.97;100.00
29733;BME280;16643;43.158;25.302;2023-04-23T02:57:09;98060.34;;;8.01;100.00
29733;BME280;16643;43.158;25.302;2023-04-23T02:59:34;98081.84;;;8.03;100.00
29733;BME280;16643;43.158;25.302;2023-04-23T03:02:00;98086.28;;;7.98;100.00
29733;BME280;16643;43.158;25.302;2023-04-23T03:04:26;98080.13;;;8.03;100.00
29733;BME280;16643;43.158;25.302;2023-04-23T03:06:52;98061.47;;;7.89;100.00
29733;BME280;16643;43.158;25.302;2023-04-23T03:09:17;98059.59;;;7.96;100.00
29733;BME280;16643;43.158;25.302;2023-04-23T03:11:43;98067.56;;;7.85;100.00
29733;BME280;16643;43.158;25.302;2023-04-23T03:14:08;98051.47;;;7.70;100.00
29733;BME280;16643;43.158;25.302;2023-04-23T03:16:34;98075.09;;;7.53;100.00
29733;BME280;16643;43.158;25.302;2023-04-23T03:19:00;97901.19;;;7.43;100.00
29733;BME280;16643;43.158;25.302;2023-04-23T03:21:25;98026.78;;;7.10;100.00
29733;BME280;16643;43.158;25.302;2023-04-23T03:23:51;98073.59;;;7.41;100.00
29733;BME280;16643;43.158;25.302;2023-04-23T03:26:17;98070.16;;;7.41;100.00
29733;BME280;16643;43.158;25.302;2023-04-23T03:28:43;98083.91;;;7.43;100.00
29733;BME280;16643;43.158;25.302;2023-04-23T03:31:09;98025.00;;;7.12;100.00
29733;BME280;16643;43.158;25.302;2023-04-23T03:33:34;98089.84;;;7.48;100.00
29733;BME280;16643;43.158;25.302;2023-04-23T03:36:00;98068.25;;;7.50;100.00
29733;BME280;16643;43.158;25.302;2023-04-23T03:38:25;98064.88;;;7.45;100.00
29733;BME280;16643;43.158;25.302;2023-04-23T03:40:51;98072.72;;;7.42;100.00
29733;BME280;16643;43.158;25.302;2023-04-23T03:43:17;98063.94;;;7.49;100.00
29733;BME280;16643;43.158;25.302;2023-04-23T03:45:43;98075.94;;;7.55;100.00
29733;BME280;16643;43.158;25.302;2023-04-23T03:48:09;98041.59;;;7.45;100.00
29733;BME280;16643;43.158;25.302;2023-04-23T03:50:34;98068.72;;;7.71;100.00
29733;BME280;16643;43.158;25.302;2023-04-23T03:53:03;98032.97;;;7.46;100.00
29733;BME280;16643;43.158;25.302;2023-04-23T03:55:29;98086.09;;;7.64;100.00
29733;BME280;16643;43.158;25.302;2023-04-23T03:57:55;98077.47;;;7.63;100.00
29733;BME280;16643;43.158;25.302;2023-04-23T04:00:20;98089.59;;;7.60;100.00
29733;BME280;16643;43.158;25.302;2023-04-23T04:02:46;98089.59;;;-142.82;100.00
29733;BME280;16643;43.158;25.302;2023-04-23T04:05:12;98078.53;;;7.53;100.00
29733;BME280;16643;43.158;25.302;2023-04-23T04:07:38;98098.28;;;7.57;100.00
29733;BME280;16643;43.158;25.302;2023-04-23T04:10:05;98099.34;;;7.92;100.00
29733;BME280;16643;43.158;25.302;2023-04-23T04:12:31;98105.16;;;8.01;100.00
29733;BME280;16643;43.158;25.302;2023-04-23T04:14:56;98101.47;;;8.15;100.00
29733;BME280;16643;43.158;25.302;2023-04-23T04:17:22;98092.78;;;8.17;100.00
29733;BME280;16643;43.158;25.302;2023-04-23T04:19:48;98036.22;;;8.00;100.00
29733;BME280;16643;43.158;25.302;2023-04-23T04:22:14;98096.47;;;8.47;100.00
29733;BME280;16643;43.158;25.302;2023-04-23T04:24:40;98079.94;;;8.54;100.00
29733;BME280;16643;43.158;25.302;2023-04-23T04:27:06;98100.97;;;8.78;100.00
29733;BME280;16643;43.158;25.302;2023-04-23T04:29:33;98102.25;;;8.97;100.00
29733;BME280;16643;43.158;25.302;2023-04-23T04:31:59;98100.00;;;9.17;100.00
29733;BME280;16643;43.158;25.302;2023-04-23T04:34:25;98090.34;;;9.24;100.00
29733;BME280;16643;43.158;25.302;2023-04-23T04:36:52;98095.13;;;9.39;100.00
29733;BME280;16643;43.158;25.302;2023-04-23T04:39:18;98106.91;;;9.52;100.00
29733;BME280;16643;43.158;25.302;2023-04-23T04:41:44;98099.88;;;9.57;100.00
29733;BME280;16643;43.158;25.302;2023-04-23T04:44:11;98088.50;;;9.61;100.00
29733;BME280;16643;43.158;25.302;2023-04-23T04:46:39;98095.19;;;9.70;100.00
29733;BME280;16643;43.158;25.302;2023-04-23T04:49:06;98108.47;;;9.90;100.00
29733;BME280;16643;43.158;25.302;2023-04-23T04:51:32;98131.34;;;10.08;100.00
29733;BME280;16643;43.158;25.302;2023-04-23T04:53:58;98086.47;;;10.03;100.00
29733;BME280;16643;43.158;25.302;2023-04-23T04:56:23;98096.59;;;10.12;100.00
29733;BME280;16643;43.158;25.302;2023-04-23T04:58:50;98118.56;;;10.32;100.00
29733;BME280;16643;43.158;25.302;2023-04-23T05:01:16;98124.31;;;10.43;100.00
29733;BME280;16643;43.158;25.302;2023-04-23T05:03:43;98127.75;;;10.43;100.00
29733;BME280;16643;43.158;25.302;2023-04-23T05:06:08;98108.72;;;10.43;100.00
29733;BME280;16643;43.158;25.302;2023-04-23T05:08:34;98125.81;;;10.50;100.00
29733;BME280;16643;43.158;25.302;2023-04-23T05:11:00;98114.53;;;10.51;100.00
29733;BME280;16643;43.158;25.302;2023-04-23T05:13:29;98098.25;;;10.46;100.00
29733;BME280;16643;43.158;25.302;2023-04-23T05:15:55;98126.31;;;10.63;100.00
29733;BME280;16643;43.158;25.302;2023-04-23T05:18:20;98092.13;;;10.48;100.00
29733;BME280;16643;43.158;25.302;2023-04-23T05:20:46;98117.25;;;10.76;100.00
29733;BME280;16643;43.158;25.302;2023-04-23T05:23:12;98121.22;;;10.87;100.00
29733;BME280;16643;43.158;25.302;2023-04-23T05:25:38;98097.38;;;10.73;100.00
29733;BME280;16643;43.158;25.302;2023-04-23T05:28:04;98129.31;;;10.78;100.00
29733;BME280;16643;43.158;25.302;2023-04-23T05:30:29;98125.66;;;10.84;100.00
29733;BME280;16643;43.158;25.302;2023-04-23T05:32:55;98125.56;;;10.87;100.00
29733;BME280;16643;43.158;25.302;2023-04-23T05:35:21;98122.03;;;10.89;100.00
29733;BME280;16643;43.158;25.302;2023-04-23T05:37:46;98139.75;;;11.05;100.00
29733;BME280;16643;43.158;25.302;2023-04-23T05:40:12;98140.06;;;11.22;100.00
29733;BME280;16643;43.158;25.302;2023-04-23T05:42:37;98136.75;;;11.43;100.00
29733;BME280;16643;43.158;25.302;2023-04-23T05:45:04;98129.69;;;11.47;100.00
29733;BME280;16643;43.158;25.302;2023-04-23T05:47:29;98154.25;;;11.64;98.48
29733;BME280;16643;43.158;25.302;2023-04-23T05:49:55;98138.16;;;12.05;97.79
29733;BME280;16643;43.158;25.302;2023-04-23T05:52:24;98106.56;;;11.89;96.17
29733;BME280;16643;43.158;25.302;2023-04-23T05:54:50;98119.03;;;12.29;96.62
29733;BME280;16643;43.158;25.302;2023-04-23T05:57:16;98169.00;;;12.63;94.95
29733;BME280;16643;43.158;25.302;2023-04-23T05:59:42;98138.25;;;12.71;91.11
29733;BME280;16643;43.158;25.302;2023-04-23T06:02:09;98122.72;;;12.90;91.02
29733;BME280;16643;43.158;25.302;2023-04-23T06:04:35;98128.72;;;13.16;86.95
29733;BME280;16643;43.158;25.302;2023-04-23T06:07:01;98157.81;;;13.49;89.65
29733;BME280;16643;43.158;25.302;2023-04-23T06:09:27;98122.91;;;13.51;87.81
29733;BME280;16643;43.158;25.302;2023-04-23T06:11:53;98145.38;;;13.96;86.40
29733;BME280;16643;43.158;25.302;2023-04-23T06:14:19;98130.28;;;14.02;85.24
29733;BME280;16643;43.158;25.302;2023-04-23T06:16:45;98143.59;;;14.16;87.12
29733;BME280;16643;43.158;25.302;2023-04-23T06:19:10;74401.84;;;-142.82;87.12
29733;BME280;16643;43.158;25.302;2023-04-23T06:21:36;98131.16;;;14.79;85.00
29733;BME280;16643;43.158;25.302;2023-04-23T06:24:02;98160.72;;;15.00;81.07
29733;BME280;16643;43.158;25.302;2023-04-23T06:26:28;98136.28;;;15.18;81.08
29733;BME280;16643;43.158;25.302;2023-04-23T06:28:53;98134.72;;;15.14;79.55
29733;BME280;16643;43.158;25.302;2023-04-23T06:31:20;98156.56;;;15.49;79.56
29733;BME280;16643;43.158;25.302;2023-04-23T06:33:46;98122.25;;;15.55;78.19
29733;BME280;16643;43.158;25.302;2023-04-23T06:36:12;98144.75;;;15.77;77.73
29733;BME280;16643;43.158;25.302;2023-04-23T06:38:39;98156.22;;;16.09;76.58
29733;BME280;16643;43.158;25.302;2023-04-23T06:41:05;98161.13;;;16.15;75.52
29733;BME280;16643;43.158;25.302;2023-04-23T06:43:31;98164.53;;;16.34;75.22
29733;BME280;16643;43.158;25.302;2023-04-23T06:45:57;98158.63;;;16.46;74.51
29733;BME280;16643;43.158;25.302;2023-04-23T06:48:22;98157.59;;;16.82;74.13
29733;BME280;16643;43.158;25.302;2023-04-23T06:50:50;98160.59;;;16.91;75.50
29733;BME280;16643;43.158;25.302;2023-04-23T06:53:15;98122.38;;;16.70;75.30
29733;BME280;16643;43.158;25.302;2023-04-23T06:55:42;98124.31;;;16.82;71.63
29733;BME280;16643;43.158;25.302;2023-04-23T06:58:07;98134.03;;;16.96;76.40
29733;BME280;16643;43.158;25.302;2023-04-23T07:00:33;98143.91;;;16.92;76.24
29733;BME280;16643;43.158;25.302;2023-04-23T07:02:59;98130.00;;;16.90;74.57
29733;BME280;16643;43.158;25.302;2023-04-23T07:05:24;98134.25;;;16.93;72.34
29733;BME280;16643;43.158;25.302;2023-04-23T07:07:50;98101.59;;;16.97;78.92
29733;BME280;16643;43.158;25.302;2023-04-23T07:10:15;98160.16;;;17.15;80.30
29733;BME280;16643;43.158;25.302;2023-04-23T07:12:41;98162.75;;;17.46;76.81
29733;BME280;16643;43.158;25.302;2023-04-23T07:15:07;98163.16;;;17.38;78.74
29733;BME280;16643;43.158;25.302;2023-04-23T07:17:33;98141.88;;;17.43;78.47
29733;BME280;16643;43.158;25.302;2023-04-23T07:19:59;98140.72;;;17.33;77.61
29733;BME280;16643;43.158;25.302;2023-04-23T07:22:25;98144.03;;;17.21;73.30
29733;BME280;16643;43.158;25.302;2023-04-23T07:24:51;98161.06;;;17.29;72.33
29733;BME280;16643;43.158;25.302;2023-04-23T07:27:18;98155.66;;;17.78;73.52
29733;BME280;16643;43.158;25.302;2023-04-23T07:29:43;98142.72;;;17.89;71.93
29733;BME280;16643;43.158;25.302;2023-04-23T07:32:09;98169.81;;;17.75;71.07
29733;BME280;16643;43.158;25.302;2023-04-23T07:34:35;98156.66;;;17.75;76.46
29733;BME280;16643;43.158;25.302;2023-04-23T07:37:03;98155.41;;;17.83;75.15
29733;BME280;16643;43.158;25.302;2023-04-23T07:39:29;98153.19;;;18.05;72.01
29733;BME280;16643;43.158;25.302;2023-04-23T07:41:55;98112.69;;;18.22;67.69
29733;BME280;16643;43.158;25.302;2023-04-23T07:44:23;98120.19;;;18.42;69.38
29733;BME280;16643;43.158;25.302;2023-04-23T07:46:49;98130.63;;;18.29;71.40
29733;BME280;16643;43.158;25.302;2023-04-23T07:49:15;98142.25;;;17.97;72.83
29733;BME280;16643;43.158;25.302;2023-04-23T07:51:41;98165.53;;;17.59;70.38
29733;BME280;16643;43.158;25.302;2023-04-23T07:54:08;98155.19;;;17.86;70.88
29733;BME280;16643;43.158;25.302;2023-04-23T07:56:34;98164.66;;;18.18;66.00
29733;BME280;16643;43.158;25.302;2023-04-23T07:59:00;98148.97;;;18.31;69.79
29733;BME280;16643;43.158;25.302;2023-04-23T08:01:27;98158.81;;;17.99;59.67
29733;BME280;16643;43.158;25.302;2023-04-23T08:03:53;98171.06;;;18.42;59.43
29733;BME280;16643;43.158;25.302;2023-04-23T08:06:21;98128.22;;;18.69;60.86
29733;BME280;16643;43.158;25.302;2023-04-23T08:08:48;98153.81;;;19.08;53.39
29733;BME280;16643;43.158;25.302;2023-04-23T08:11:14;98148.84;;;18.62;48.98
29733;BME280;16643;43.158;25.302;2023-04-23T08:13:39;98147.00;;;18.91;51.26
29733;BME280;16643;43.158;25.302;2023-04-23T08:16:05;98153.78;;;18.38;45.14
29733;BME280;16643;43.158;25.302;2023-04-23T08:18:32;98137.69;;;18.85;54.23
29733;BME280;16643;43.158;25.302;2023-04-23T08:20:58;98135.59;;;19.05;58.65
29733;BME280;16643;43.158;25.302;2023-04-23T08:23:24;98147.66;;;18.95;59.52
29733;BME280;16643;43.158;25.302;2023-04-23T08:25:49;98109.16;;;19.06;56.08
29733;BME280;16643;43.158;25.302;2023-04-23T08:28:17;98130.78;;;19.38;57.22
29733;BME280;16643;43.158;25.302;2023-04-23T08:30:43;98118.78;;;19.20;54.99
29733;BME280;16643;43.158;25.302;2023-04-23T08:33:08;98115.63;;;19.01;54.88
29733;BME280;16643;43.158;25.302;2023-04-23T08:35:34;98140.75;;;19.33;55.01
29733;BME280;16643;43.158;25.302;2023-04-23T08:37:59;98136.66;;;19.42;57.18
29733;BME280;16643;43.158;25.302;2023-04-23T08:40:29;98136.44;;;19.05;50.00
29733;BME280;16643;43.158;25.302;2023-04-23T08:43:02;98126.69;;;19.20;49.98
29733;BME280;16643;43.158;25.302;2023-04-23T08:45:31;98145.13;;;18.93;46.79
29733;BME280;16643;43.158;25.302;2023-04-23T08:47:59;98131.34;;;19.02;48.86
29733;BME280;16643;43.158;25.302;2023-04-23T08:50:28;98112.47;;;19.22;47.14
29733;BME280;16643;43.158;25.302;2023-04-23T08:52:55;98128.94;;;18.57;51.25
29733;BME280;16643;43.158;25.302;2023-04-23T08:55:22;98115.91;;;18.96;48.42
29733;BME280;16643;43.158;25.302;2023-04-23T08:57:48;98086.13;;;18.96;49.00
29733;BME280;16643;43.158;25.302;2023-04-23T09:00:19;98124.81;;;19.08;43.72
29733;BME280;16643;43.158;25.302;2023-04-23T09:02:47;98117.28;;;19.43;45.54
29733;BME280;16643;43.158;25.302;2023-04-23T09:05:14;98122.53;;;18.89;45.75
29733;BME280;16643;43.158;25.302;2023-04-23T09:07:39;98106.75;;;19.16;45.35
29733;BME280;16643;43.158;25.302;2023-04-23T09:10:07;98112.50;;;19.35;45.49
29733;BME280;16643;43.158;25.302;2023-04-23T09:12:35;98097.31;;;19.26;45.54
29733;BME280;16643;43.158;25.302;2023-04-23T09:15:02;98088.63;;;19.24;44.28
29733;BME280;16643;43.158;25.302;2023-04-23T09:17:35;98105.91;;;18.74;44.10
29733;BME280;16643;43.158;25.302;2023-04-23T09:20:01;98108.06;;;19.09;46.13
29733;BME280;16643;43.158;25.302;2023-04-23T09:25:04;98080.97;;;19.61;49.61
29733;BME280;16643;43.158;25.302;2023-04-23T09:27:30;98113.28;;;19.89;39.96
29733;BME280;16643;43.158;25.302;2023-04-23T09:29:56;98087.75;;;20.03;44.54
29733;BME280;16643;43.158;25.302;2023-04-23T09:32:44;98107.59;;;19.83;39.51
29733;BME280;16643;43.158;25.302;2023-04-23T09:35:17;98087.50;;;19.68;40.09
29733;BME280;16643;43.158;25.302;2023-04-23T09:37:50;98092.81;;;19.80;39.74
29733;BME280;16643;43.158;25.302;2023-04-23T09:40:22;98107.28;;;20.00;40.46
29733;BME280;16643;43.158;25.302;2023-04-23T09:42:49;98098.09;;;19.93;42.43
29733;BME280;16643;43.158;25.302;2023-04-23T09:45:15;98099.91;;;20.05;39.60
29733;BME280;16643;43.158;25.302;2023-04-23T09:47:49;98105.09;;;20.19;43.26
29733;BME280;16643;43.158;25.302;2023-04-23T09:50:15;98076.56;;;20.37;41.66
29733;BME280;16643;43.158;25.302;2023-04-23T09:52:41;98074.31;;;20.56;39.39
29733;BME280;16643;43.158;25.302;2023-04-23T09:55:07;98082.66;;;20.63;38.34
29733;BME280;16643;43.158;25.302;2023-04-23T09:57:37;98087.03;;;20.39;37.93
29733;BME280;16643;43.158;25.302;2023-04-23T10:00:17;98090.59;;;20.63;40.81
29733;BME280;16643;43.158;25.302;2023-04-23T10:02:48;98086.47;;;20.46;39.75
29733;BME280;16643;43.158;25.302;2023-04-23T10:05:16;98081.19;;;20.46;39.99
29733;BME280;16643;43.158;25.302;2023-04-23T10:07:46;98071.38;;;20.48;40.13
29733;BME280;16643;43.158;25.302;2023-04-23T10:10:17;98039.72;;;19.98;40.42
29733;BME280;16643;43.158;25.302;2023-04-23T10:12:44;98088.91;;;20.11;39.07
29733;BME280;16643;43.158;25.302;2023-04-23T10:15:11;98076.25;;;19.91;40.48
29733;BME280;16643;43.158;25.302;2023-04-23T10:17:37;98074.00;;;20.48;42.57
29733;BME280;16643;43.158;25.302;2023-04-23T10:20:05;98060.50;;;20.02;38.99
29733;BME280;16643;43.158;25.302;2023-04-23T10:22:32;98052.38;;;19.67;42.37
29733;BME280;16643;43.158;25.302;2023-04-23T10:25:00;98054.19;;;19.92;39.03
29733;BME280;16643;43.158;25.302;2023-04-23T10:27:29;98059.97;;;20.10;39.69
29733;BME280;16643;43.158;25.302;2023-04-23T10:29:59;98053.41;;;20.28;39.81
29733;BME280;16643;43.158;25.302;2023-04-23T10:32:26;98037.78;;;20.25;38.49
29733;BME280;16643;43.158;25.302;2023-04-23T10:34:52;98047.59;;;20.48;37.64
29733;BME280;16643;43.158;25.302;2023-04-23T10:37:18;98033.66;;;20.46;37.13
29733;BME280;16643;43.158;25.302;2023-04-23T10:39:49;98025.63;;;20.48;36.46
29733;BME280;16643;43.158;25.302;2023-04-23T10:42:15;98039.81;;;20.71;39.58
29733;BME280;16643;43.158;25.302;2023-04-23T10:44:42;98048.16;;;21.25;39.37
29733;BME280;16643;43.158;25.302;2023-04-23T10:47:15;98035.28;;;20.96;37.52
29733;BME280;16643;43.158;25.302;2023-04-23T10:49:42;98034.38;;;20.85;38.83
29733;BME280;16643;43.158;25.302;2023-04-23T10:52:10;98046.06;;;20.93;36.55
29733;BME280;16643;43.158;25.302;2023-04-23T10:54:39;98043.09;;;20.98;38.01
29733;BME280;16643;43.158;25.302;2023-04-23T10:57:07;97994.03;;;20.46;36.83
29733;BME280;16643;43.158;25.302;2023-04-23T10:59:34;98032.41;;;20.76;39.14
29733;BME280;16643;43.158;25.302;2023-04-23T11:02:10;98022.19;;;21.19;40.59
29733;BME280;16643;43.158;25.302;2023-04-23T11:04:41;98024.03;;;21.06;36.58
29733;BME280;16643;43.158;25.302;2023-04-23T11:07:10;98023.19;;;21.29;34.07
29733;BME280;16643;43.158;25.302;2023-04-23T11:09:41;98018.13;;;21.26;35.02
29733;BME280;16643;43.158;25.302;2023-04-23T11:12:12;98015.38;;;21.27;33.17
29733;BME280;16643;43.158;25.302;2023-04-23T11:14:41;98019.41;;;20.73;34.60
29733;BME280;16643;43.158;25.302;2023-04-23T11:17:11;98017.22;;;20.90;37.02
29733;BME280;16643;43.158;25.302;2023-04-23T11:19:38;98014.19;;;21.08;35.36
29733;BME280;16643;43.158;25.302;2023-04-23T11:22:05;98008.44;;;20.90;34.32
29733;BME280;16643;43.158;25.302;2023-04-23T11:24:40;97997.47;;;21.07;37.62
29733;BME280;16643;43.158;25.302;2023-04-23T11:29:37;98015.25;;;21.29;35.38
29733;BME280;16643;43.158;25.302;2023-04-23T11:32:04;98000.00;;;21.32;33.53
29733;BME280;16643;43.158;25.302;2023-04-23T11:34:36;98006.53;;;21.51;34.11
29733;BME280;16643;43.158;25.302;2023-04-23T11:37:03;98008.78;;;21.33;36.40
29733;BME280;16643;43.158;25.302;2023-04-23T11:39:29;97996.13;;;21.01;36.54
29733;BME280;16643;43.158;25.302;2023-04-23T11:41:55;97998.50;;;20.93;34.50
29733;BME280;16643;43.158;25.302;2023-04-23T11:44:23;98000.97;;;20.84;35.55
29733;BME280;16643;43.158;25.302;2023-04-23T11:46:49;97978.94;;;20.96;35.01
29733;BME280;16643;43.158;25.302;2023-04-23T11:49:19;97997.91;;;21.01;33.21
29733;BME280;16643;43.158;25.302;2023-04-23T11:51:47;97994.09;;;21.05;33.08
29733;BME280;16643;43.158;25.302;2023-04-23T11:54:13;97980.88;;;21.05;35.74
29733;BME280;16643;43.158;25.302;2023-04-23T11:56:40;97997.03;;;21.48;31.73
29733;BME280;16643;43.158;25.302;2023-04-23T11:59:05;97979.03;;;21.76;35.50
29733;BME280;16643;43.158;25.302;2023-04-23T12:01:43;97988.59;;;22.12;31.92
29733;BME280;16643;43.158;25.302;2023-04-23T12:04:19;97982.41;;;21.78;32.22
29733;BME280;16643;43.158;25.302;2023-04-23T12:06:46;97976.28;;;21.66;32.93
29733;BME280;16643;43.158;25.302;2023-04-23T12:09:13;97952.97;;;21.01;33.08
29733;BME280;16643;43.158;25.302;2023-04-23T12:11:43;97961.19;;;21.09;31.58
29733;BME280;16643;43.158;25.302;2023-04-23T12:14:11;97970.75;;;21.23;34.36
29733;BME280;16643;43.158;25.302;2023-04-23T12:19:03;97966.59;;;21.31;35.06
29733;BME280;16643;43.158;25.302;2023-04-23T12:21:28;97947.97;;;20.74;33.50
29733;BME280;16643;43.158;25.302;2023-04-23T12:23:55;97942.03;;;20.10;35.46
29733;BME280;16643;43.158;25.302;2023-04-23T12:26:21;97947.84;;;20.15;35.74
29733;BME280;16643;43.158;25.302;2023-04-23T12:28:52;97953.41;;;20.23;36.23
29733;BME280;16643;43.158;25.302;2023-04-23T12:31:22;97950.63;;;19.88;33.38
29733;BME280;16643;43.158;25.302;2023-04-23T12:34:06;97962.75;;;20.04;36.60
29733;BME280;16643;43.158;25.302;2023-04-23T12:36:34;97903.75;;;19.92;35.21
29733;BME280;16643;43.158;25.302;2023-04-23T12:39:29;97948.88;;;20.25;33.89
29733;BME280;16643;43.158;25.302;2023-04-23T12:42:03;97945.94;;;20.17;35.95
29733;BME280;16643;43.158;25.302;2023-04-23T12:44:37;97908.50;;;20.00;36.67
29733;BME280;16643;43.158;25.302;2023-04-23T12:47:05;97928.72;;;20.12;36.04
29733;BME280;16643;43.158;25.302;2023-04-23T12:49:33;97935.13;;;19.97;34.95
29733;BME280;16643;43.158;25.302;2023-04-23T12:52:00;97924.22;;;20.01;35.99
29733;BME280;16643;43.158;25.302;2023-04-23T12:54:32;97916.44;;;20.36;36.98